ANA8407 KLAX-RJAA
Flight info
| Callsign | ANA8407 |
|---|---|
| Flight time | N/A |
| Altitude | 38000 |
| Route | SUMMR2 MCKEY DCT LIBBO DCT BRINY DCT BOARS DCT AMAKR DCT 44N130W/N0475F400 49N140W 51N150W 53N160W 55N170W 55N180E DCT ONEIL DCT NIKLL/N0484F410 R220 NANAC/N0462F400 Z22 LOSVA Y810 OLDIV Y809 SUPOK |
| Aircraft | B77L/H-SDE1E2E3FGHIJ1J2J3J4J5M1P2RWY/LB1D1 |
Departure
| Time | 2026-04-20 17:08 |
|---|---|
| Airport | Los Angeles International Airport (KLAX) |
Arrival
| Time | N/A |
|---|---|
| Airport | Narita International Airport (RJAA) |
| Time | Latitude | Longitude | Altitude | Speed | Heading |
|---|---|---|---|---|---|
| 2026-04-20 16:44 | 33.93465 | -118.38212 | 97 ft | 0 kts | 224° |
| 2026-04-20 16:55 | 33.93467 | -118.38210 | 97 ft | 1 kts | 224° |
| 2026-04-20 16:56 | 33.93479 | -118.38195 | 96 ft | 3 kts | 244° |
| 2026-04-20 16:56 | 33.93484 | -118.38173 | 97 ft | 2 kts | 269° |
| 2026-04-20 16:56 | 33.93483 | -118.38151 | 97 ft | 3 kts | 282° |
| 2026-04-20 16:56 | 33.93477 | -118.38132 | 98 ft | 3 kts | 328° |
| 2026-04-20 16:57 | 33.93467 | -118.38127 | 96 ft | 1 kts | 0° |
| 2026-04-20 16:57 | 33.93450 | -118.38127 | 96 ft | 3 kts | 0° |
| 2026-04-20 16:57 | 33.93437 | -118.38127 | 96 ft | 0 kts | 0° |
| 2026-04-20 17:02 | 33.93442 | -118.38127 | 97 ft | 3 kts | 0° |
| 2026-04-20 17:03 | 33.93489 | -118.38127 | 99 ft | 8 kts | 360° |
| 2026-04-20 17:03 | 33.93547 | -118.38127 | 99 ft | 9 kts | 0° |
| 2026-04-20 17:03 | 33.93608 | -118.38137 | 100 ft | 9 kts | 323° |
| 2026-04-20 17:03 | 33.93619 | -118.38214 | 100 ft | 10 kts | 263° |
| 2026-04-20 17:04 | 33.93617 | -118.38234 | 98 ft | 0 kts | 264° |
| 2026-04-20 17:04 | 33.93617 | -118.38242 | 98 ft | 3 kts | 272° |
| 2026-04-20 17:04 | 33.93628 | -118.38263 | 100 ft | 3 kts | 314° |
| 2026-04-20 17:04 | 33.93633 | -118.38266 | 100 ft | 0 kts | 329° |
| 2026-04-20 17:06 | 33.93667 | -118.38280 | 103 ft | 10 kts | 350° |
| 2026-04-20 17:06 | 33.93726 | -118.38298 | 105 ft | 7 kts | 317° |
| 2026-04-20 17:06 | 33.93730 | -118.38348 | 105 ft | 7 kts | 262° |
| 2026-04-20 17:07 | 33.93728 | -118.38360 | 104 ft | 9 kts | 262° |
| 2026-04-20 17:07 | 33.93694 | -118.38696 | 101 ft | 82 kts | 263° |
| 2026-04-20 17:07 | 33.93590 | -118.39697 | 99 ft | 156 kts | 262° |
| 2026-04-20 17:07 | 33.93434 | -118.41108 | 577 ft | 173 kts | 261° |
| 2026-04-20 17:08 | 33.93286 | -118.42529 | 1480 ft | 169 kts | 262° |
| 2026-04-20 17:08 | 33.93146 | -118.43970 | 2259 ft | 178 kts | 262° |
| 2026-04-20 17:08 | 33.92993 | -118.45553 | 2750 ft | 202 kts | 263° |
| 2026-04-20 17:08 | 33.92892 | -118.47383 | 3045 ft | 236 kts | 266° |
| 2026-04-20 17:09 | 33.92830 | -118.49466 | 3581 ft | 257 kts | 267° |
| 2026-04-20 17:09 | 33.92742 | -118.51653 | 4489 ft | 265 kts | 264° |
| 2026-04-20 17:09 | 33.92550 | -118.53886 | 5470 ft | 270 kts | 263° |
| 2026-04-20 17:09 | 33.92346 | -118.56147 | 6495 ft | 273 kts | 262° |
| 2026-04-20 17:10 | 33.92148 | -118.58427 | 7488 ft | 275 kts | 262° |
| 2026-04-20 17:10 | 33.91953 | -118.60728 | 8471 ft | 278 kts | 262° |
| 2026-04-20 17:10 | 33.91764 | -118.63054 | 9459 ft | 281 kts | 263° |
| 2026-04-20 17:10 | 33.91701 | -118.65425 | 10366 ft | 287 kts | 267° |
| 2026-04-20 17:11 | 33.91705 | -118.67918 | 10802 ft | 311 kts | 267° |
| 2026-04-20 17:11 | 33.91715 | -118.70651 | 11013 ft | 341 kts | 267° |
| 2026-04-20 17:11 | 33.91723 | -118.73566 | 11630 ft | 354 kts | 267° |
| 2026-04-20 17:11 | 33.91722 | -118.76556 | 12485 ft | 361 kts | 267° |
| 2026-04-20 17:12 | 33.91712 | -118.79598 | 13434 ft | 365 kts | 266° |
| 2026-04-20 17:12 | 33.91699 | -118.82671 | 14357 ft | 369 kts | 266° |
| 2026-04-20 17:12 | 33.91722 | -118.85773 | 15238 ft | 373 kts | 268° |
| 2026-04-20 17:12 | 33.91827 | -118.88906 | 16131 ft | 376 kts | 269° |
| 2026-04-20 17:13 | 33.91945 | -118.92070 | 17001 ft | 380 kts | 269° |
| 2026-04-20 17:13 | 33.92051 | -118.95263 | 17843 ft | 385 kts | 268° |
| 2026-04-20 17:13 | 33.92148 | -118.98504 | 18675 ft | 388 kts | 268° |
| 2026-04-20 17:13 | 33.92483 | -119.01733 | 19251 ft | 398 kts | 282° |
| 2026-04-20 17:14 | 33.93710 | -119.04770 | 19874 ft | 407 kts | 298° |
| 2026-04-20 17:14 | 33.95286 | -119.07640 | 20542 ft | 413 kts | 298° |
| 2026-04-20 17:14 | 33.96837 | -119.10567 | 21330 ft | 415 kts | 298° |
| 2026-04-20 17:14 | 33.98368 | -119.13522 | 22160 ft | 417 kts | 297° |
| 2026-04-20 17:15 | 33.99903 | -119.16503 | 22929 ft | 419 kts | 298° |
| 2026-04-20 17:15 | 34.01657 | -119.19339 | 23537 ft | 432 kts | 311° |
| 2026-04-20 17:15 | 34.04065 | -119.21560 | 24016 ft | 441 kts | 321° |
| 2026-04-20 17:15 | 34.06596 | -119.23619 | 24518 ft | 447 kts | 321° |
| 2026-04-20 17:16 | 34.09174 | -119.25744 | 25113 ft | 452 kts | 321° |
| 2026-04-20 17:16 | 34.11769 | -119.27921 | 25665 ft | 457 kts | 321° |
| 2026-04-20 17:16 | 34.14405 | -119.30162 | 26310 ft | 460 kts | 320° |
| 2026-04-20 17:16 | 34.16987 | -119.32378 | 26958 ft | 463 kts | 320° |
| 2026-04-20 17:17 | 34.19623 | -119.34650 | 27568 ft | 468 kts | 320° |
| 2026-04-20 17:17 | 34.22318 | -119.36979 | 28145 ft | 472 kts | 320° |
| 2026-04-20 17:17 | 34.25001 | -119.39300 | 28762 ft | 476 kts | 321° |
| 2026-04-20 17:17 | 34.27708 | -119.41641 | 29346 ft | 481 kts | 321° |
| 2026-04-20 17:18 | 34.30441 | -119.44005 | 29909 ft | 486 kts | 321° |
| 2026-04-20 17:18 | 34.33166 | -119.46364 | 30417 ft | 490 kts | 321° |
| 2026-04-20 17:18 | 34.35945 | -119.48770 | 30892 ft | 493 kts | 321° |
| 2026-04-20 17:18 | 34.38739 | -119.51192 | 31348 ft | 496 kts | 321° |
| 2026-04-20 17:19 | 34.41512 | -119.53680 | 31873 ft | 495 kts | 316° |
| 2026-04-20 17:19 | 34.43926 | -119.56609 | 32425 ft | 490 kts | 308° |
| 2026-04-20 17:19 | 34.46114 | -119.59757 | 33049 ft | 487 kts | 306° |
| 2026-04-20 17:19 | 34.48238 | -119.62941 | 33681 ft | 485 kts | 306° |
| 2026-04-20 17:20 | 34.50355 | -119.66123 | 34226 ft | 485 kts | 306° |
| 2026-04-20 17:20 | 34.52486 | -119.69283 | 34686 ft | 485 kts | 306° |
| 2026-04-20 17:20 | 34.54644 | -119.72428 | 35188 ft | 484 kts | 307° |
| 2026-04-20 17:20 | 34.56807 | -119.75542 | 35689 ft | 482 kts | 307° |
| 2026-04-20 17:21 | 34.58976 | -119.78640 | 36176 ft | 481 kts | 307° |
| 2026-04-20 17:21 | 34.61148 | -119.81732 | 36618 ft | 481 kts | 307° |
| 2026-04-20 17:21 | 34.63316 | -119.84816 | 37081 ft | 481 kts | 307° |
| 2026-04-20 17:21 | 34.65482 | -119.87903 | 37541 ft | 480 kts | 307° |
| 2026-04-20 17:22 | 34.67643 | -119.90987 | 37992 ft | 479 kts | 307° |
| 2026-04-20 17:22 | 34.71986 | -119.97203 | 38059 ft | 484 kts | 307° |
| 2026-04-20 17:23 | 34.76325 | -120.03422 | 38062 ft | 479 kts | 307° |
| 2026-04-20 17:23 | 34.80613 | -120.09579 | 38054 ft | 476 kts | 307° |
| 2026-04-20 17:24 | 34.84875 | -120.15715 | 38056 ft | 473 kts | 307° |
| 2026-04-20 17:24 | 34.89125 | -120.21843 | 38075 ft | 474 kts | 307° |
| 2026-04-20 17:25 | 34.93378 | -120.27988 | 38079 ft | 475 kts | 307° |
| 2026-04-20 17:25 | 34.97641 | -120.34156 | 38072 ft | 477 kts | 307° |
| 2026-04-20 17:26 | 35.01916 | -120.40350 | 38092 ft | 479 kts | 306° |
| 2026-04-20 17:26 | 35.06214 | -120.46590 | 38087 ft | 481 kts | 306° |
| 2026-04-20 17:27 | 35.10518 | -120.52850 | 38077 ft | 481 kts | 306° |
| 2026-04-20 17:27 | 35.14818 | -120.59115 | 38071 ft | 481 kts | 306° |
| 2026-04-20 17:28 | 35.19114 | -120.65386 | 38068 ft | 481 kts | 306° |
| 2026-04-20 17:28 | 35.23374 | -120.71614 | 38074 ft | 480 kts | 306° |
| 2026-04-20 17:29 | 35.27650 | -120.77879 | 38051 ft | 479 kts | 306° |
| 2026-04-20 17:29 | 35.31910 | -120.84132 | 38080 ft | 478 kts | 306° |
| 2026-04-20 17:30 | 35.36163 | -120.90387 | 38063 ft | 478 kts | 306° |
| 2026-04-20 17:30 | 35.40411 | -120.96644 | 38084 ft | 477 kts | 306° |
| 2026-04-20 17:31 | 35.44654 | -121.02907 | 38074 ft | 477 kts | 306° |
| 2026-04-20 17:31 | 35.48895 | -121.09172 | 38074 ft | 477 kts | 306° |
| 2026-04-20 17:32 | 35.53194 | -121.15377 | 38082 ft | 478 kts | 306° |
| 2026-04-20 17:32 | 35.57526 | -121.21575 | 38068 ft | 478 kts | 306° |
| 2026-04-20 17:33 | 35.61849 | -121.27788 | 38072 ft | 478 kts | 306° |
| 2026-04-20 17:33 | 35.66165 | -121.34020 | 38077 ft | 479 kts | 306° |
| 2026-04-20 17:34 | 35.69750 | -121.39208 | 38067 ft | 479 kts | 306° |
| 2026-04-20 17:34 | 35.74054 | -121.45448 | 38060 ft | 478 kts | 306° |
| 2026-04-20 17:35 | 35.79087 | -121.52757 | 38070 ft | 478 kts | 306° |
| 2026-04-20 17:35 | 35.82658 | -121.57952 | 38057 ft | 478 kts | 306° |
| 2026-04-20 17:36 | 35.86956 | -121.64215 | 38051 ft | 478 kts | 306° |
| 2026-04-20 17:36 | 35.91945 | -121.71502 | 38049 ft | 478 kts | 306° |
| 2026-04-20 17:37 | 35.95535 | -121.76754 | 38043 ft | 478 kts | 306° |
| 2026-04-20 17:37 | 36.00208 | -121.82647 | 38051 ft | 486 kts | 317° |
| 2026-04-20 17:38 | 36.05929 | -121.87193 | 38040 ft | 493 kts | 329° |
| 2026-04-20 17:38 | 36.12081 | -121.90972 | 38037 ft | 494 kts | 330° |
| 2026-04-20 17:39 | 36.18243 | -121.94730 | 38032 ft | 494 kts | 329° |
| 2026-04-20 17:39 | 36.24392 | -121.98550 | 38031 ft | 494 kts | 329° |
| 2026-04-20 17:40 | 36.30525 | -122.02401 | 38041 ft | 494 kts | 329° |
| 2026-04-20 17:40 | 36.36659 | -122.06267 | 38033 ft | 494 kts | 329° |
| 2026-04-20 17:41 | 36.42788 | -122.10134 | 38041 ft | 495 kts | 329° |
| 2026-04-20 17:41 | 36.48928 | -122.14011 | 38047 ft | 495 kts | 328° |
| 2026-04-20 17:42 | 36.55070 | -122.17896 | 38032 ft | 495 kts | 328° |
| 2026-04-20 17:42 | 36.61209 | -122.21787 | 38027 ft | 495 kts | 328° |
| 2026-04-20 17:43 | 36.67336 | -122.25677 | 38036 ft | 495 kts | 328° |
| 2026-04-20 17:43 | 36.73427 | -122.29551 | 38008 ft | 494 kts | 328° |
| 2026-04-20 17:44 | 36.79546 | -122.33450 | 38010 ft | 494 kts | 328° |
| 2026-04-20 17:44 | 36.85663 | -122.37355 | 38036 ft | 494 kts | 328° |
| 2026-04-20 17:45 | 36.91789 | -122.41273 | 38012 ft | 494 kts | 328° |
| 2026-04-20 17:45 | 36.97905 | -122.45191 | 38002 ft | 493 kts | 328° |
| 2026-04-20 17:46 | 37.04009 | -122.49109 | 38005 ft | 493 kts | 327° |
| 2026-04-20 17:46 | 37.10103 | -122.53028 | 37989 ft | 492 kts | 327° |
| 2026-04-20 17:47 | 37.16195 | -122.56953 | 37990 ft | 493 kts | 327° |
| 2026-04-20 17:47 | 37.22298 | -122.60893 | 37990 ft | 493 kts | 327° |
| 2026-04-20 17:48 | 37.28403 | -122.64840 | 37984 ft | 493 kts | 327° |
| 2026-04-20 17:48 | 37.34691 | -122.68409 | 37981 ft | 499 kts | 333° |
| 2026-04-20 17:49 | 37.41169 | -122.71584 | 37972 ft | 500 kts | 333° |
| 2026-04-20 17:49 | 37.47643 | -122.74757 | 37971 ft | 499 kts | 333° |
| 2026-04-20 17:50 | 37.54107 | -122.77976 | 37974 ft | 499 kts | 333° |
| 2026-04-20 17:50 | 37.60568 | -122.81219 | 37968 ft | 500 kts | 332° |
| 2026-04-20 17:51 | 37.67026 | -122.84468 | 37958 ft | 500 kts | 332° |
| 2026-04-20 17:51 | 37.73497 | -122.87725 | 37948 ft | 501 kts | 332° |
| 2026-04-20 17:52 | 37.79975 | -122.90992 | 37962 ft | 502 kts | 332° |
| 2026-04-20 17:52 | 37.86469 | -122.94275 | 37954 ft | 503 kts | 332° |
| 2026-04-20 17:53 | 37.92981 | -122.97571 | 37946 ft | 504 kts | 332° |
| 2026-04-20 17:53 | 37.99486 | -123.00871 | 37952 ft | 504 kts | 332° |
| 2026-04-20 17:54 | 38.06002 | -123.04182 | 37963 ft | 505 kts | 332° |
| 2026-04-20 17:54 | 38.12538 | -123.07512 | 37941 ft | 507 kts | 332° |
| 2026-04-20 17:55 | 38.19088 | -123.10853 | 37932 ft | 507 kts | 332° |
| 2026-04-20 17:55 | 38.25409 | -123.14688 | 37929 ft | 498 kts | 321° |
| 2026-04-20 17:56 | 38.31263 | -123.19401 | 37929 ft | 498 kts | 320° |
| 2026-04-20 17:56 | 38.37114 | -123.24169 | 37959 ft | 500 kts | 320° |
| 2026-04-20 17:57 | 38.43003 | -123.28914 | 37921 ft | 502 kts | 320° |
| 2026-04-20 17:57 | 38.48923 | -123.33659 | 37925 ft | 503 kts | 320° |
| 2026-04-20 17:58 | 38.54851 | -123.38414 | 37923 ft | 503 kts | 320° |
| 2026-04-20 17:58 | 38.60779 | -123.43184 | 37916 ft | 504 kts | 320° |
| 2026-04-20 17:59 | 38.66706 | -123.47964 | 37918 ft | 503 kts | 320° |
| 2026-04-20 17:59 | 38.72627 | -123.52750 | 37915 ft | 503 kts | 320° |
| 2026-04-20 18:00 | 38.78542 | -123.57539 | 37917 ft | 503 kts | 320° |
| 2026-04-20 18:00 | 38.84452 | -123.62334 | 37932 ft | 503 kts | 320° |
| 2026-04-20 18:01 | 38.90355 | -123.67135 | 37917 ft | 503 kts | 320° |
| 2026-04-20 18:01 | 38.96223 | -123.71914 | 37911 ft | 502 kts | 320° |
| 2026-04-20 18:02 | 39.01928 | -123.76996 | 37920 ft | 493 kts | 311° |
| 2026-04-20 18:02 | 39.07072 | -123.82783 | 37926 ft | 491 kts | 310° |
| 2026-04-20 18:03 | 39.12184 | -123.88641 | 37938 ft | 493 kts | 310° |
| 2026-04-20 18:03 | 39.17333 | -123.94503 | 37930 ft | 495 kts | 310° |
| 2026-04-20 18:04 | 39.22514 | -124.00368 | 37925 ft | 497 kts | 310° |
| 2026-04-20 18:04 | 39.27721 | -124.06263 | 37945 ft | 499 kts | 310° |
| 2026-04-20 18:05 | 39.35560 | -124.15159 | 37897 ft | 500 kts | 310° |
| 2026-04-20 18:05 | 39.40779 | -124.21096 | 37897 ft | 499 kts | 310° |
| 2026-04-20 18:06 | 39.45992 | -124.27043 | 37891 ft | 499 kts | 309° |
| 2026-04-20 18:06 | 39.51202 | -124.33002 | 37888 ft | 500 kts | 309° |
| 2026-04-20 18:07 | 39.56409 | -124.38968 | 37899 ft | 500 kts | 309° |
| 2026-04-20 18:07 | 39.61618 | -124.44947 | 37885 ft | 500 kts | 309° |
| 2026-04-20 18:08 | 39.66819 | -124.50929 | 37888 ft | 499 kts | 309° |
| 2026-04-20 18:08 | 39.72016 | -124.56922 | 37892 ft | 500 kts | 309° |
| 2026-04-20 18:09 | 39.77210 | -124.62923 | 37884 ft | 499 kts | 309° |
| 2026-04-20 18:09 | 39.82399 | -124.68930 | 37926 ft | 499 kts | 309° |
| 2026-04-20 18:10 | 39.87590 | -124.74954 | 37895 ft | 500 kts | 309° |
| 2026-04-20 18:10 | 39.92781 | -124.80989 | 37881 ft | 500 kts | 309° |
| 2026-04-20 18:11 | 39.97972 | -124.87037 | 37894 ft | 501 kts | 309° |
| 2026-04-20 18:11 | 40.03167 | -124.93103 | 37881 ft | 501 kts | 309° |
| 2026-04-20 18:12 | 40.08353 | -124.99171 | 37884 ft | 501 kts | 309° |
| 2026-04-20 18:12 | 40.13547 | -125.05262 | 37887 ft | 502 kts | 308° |
| 2026-04-20 18:13 | 40.18741 | -125.11366 | 37882 ft | 502 kts | 308° |
| 2026-04-20 18:13 | 40.23931 | -125.17476 | 37904 ft | 502 kts | 308° |
| 2026-04-20 18:14 | 40.29085 | -125.23559 | 37884 ft | 502 kts | 308° |
| 2026-04-20 18:14 | 40.34303 | -125.29730 | 37874 ft | 502 kts | 308° |
| 2026-04-20 18:15 | 40.39441 | -125.35820 | 37887 ft | 502 kts | 308° |
| 2026-04-20 18:15 | 40.44621 | -125.41974 | 37866 ft | 502 kts | 308° |
| 2026-04-20 18:16 | 40.49790 | -125.48126 | 37882 ft | 501 kts | 308° |
| 2026-04-20 18:16 | 40.54964 | -125.54300 | 37877 ft | 503 kts | 308° |
| 2026-04-20 18:17 | 40.60137 | -125.60485 | 37876 ft | 502 kts | 308° |
| 2026-04-20 18:17 | 40.65307 | -125.66678 | 37889 ft | 502 kts | 308° |
| 2026-04-20 18:18 | 40.70475 | -125.72885 | 37870 ft | 503 kts | 308° |
| 2026-04-20 18:18 | 40.75635 | -125.79096 | 37869 ft | 503 kts | 308° |
| 2026-04-20 18:19 | 40.80798 | -125.85323 | 37868 ft | 503 kts | 308° |
| 2026-04-20 18:19 | 40.85088 | -125.90508 | 37869 ft | 503 kts | 308° |
| 2026-04-20 18:20 | 40.90245 | -125.96754 | 37869 ft | 503 kts | 308° |
| 2026-04-20 18:20 | 40.95396 | -126.03007 | 37874 ft | 504 kts | 308° |
| 2026-04-20 18:21 | 41.00556 | -126.09283 | 37865 ft | 504 kts | 308° |
| 2026-04-20 18:21 | 41.06548 | -126.16588 | 37908 ft | 504 kts | 309° |
| 2026-04-20 18:22 | 41.10872 | -126.21874 | 37869 ft | 505 kts | 309° |
| 2026-04-20 18:22 | 41.16033 | -126.28193 | 37864 ft | 505 kts | 309° |
| 2026-04-20 18:23 | 41.21190 | -126.34522 | 37899 ft | 505 kts | 309° |
| 2026-04-20 18:23 | 41.26349 | -126.40869 | 37872 ft | 505 kts | 309° |
| 2026-04-20 18:24 | 41.31501 | -126.47219 | 37861 ft | 505 kts | 309° |
| 2026-04-20 18:24 | 41.36620 | -126.53545 | 37881 ft | 506 kts | 309° |
| 2026-04-20 18:25 | 41.41778 | -126.59933 | 37865 ft | 506 kts | 309° |
| 2026-04-20 18:25 | 41.46937 | -126.66336 | 37864 ft | 507 kts | 309° |
| 2026-04-20 18:26 | 41.52095 | -126.72756 | 37858 ft | 508 kts | 310° |
| 2026-04-20 18:26 | 41.57256 | -126.79190 | 37867 ft | 508 kts | 310° |
| 2026-04-20 18:27 | 41.62424 | -126.85648 | 37867 ft | 509 kts | 310° |
| 2026-04-20 18:27 | 41.67596 | -126.92128 | 37868 ft | 510 kts | 310° |
| 2026-04-20 18:28 | 41.72770 | -126.98624 | 37860 ft | 510 kts | 310° |
| 2026-04-20 18:28 | 41.77941 | -127.05130 | 37884 ft | 510 kts | 311° |
| 2026-04-20 18:29 | 41.83106 | -127.11647 | 37858 ft | 510 kts | 311° |
| 2026-04-20 18:29 | 41.88264 | -127.18168 | 37847 ft | 509 kts | 311° |
| 2026-04-20 18:30 | 41.93406 | -127.24684 | 37876 ft | 508 kts | 311° |
| 2026-04-20 18:30 | 41.98547 | -127.31216 | 37857 ft | 509 kts | 311° |
| 2026-04-20 18:31 | 42.03687 | -127.37760 | 37856 ft | 509 kts | 311° |
| 2026-04-20 18:31 | 42.08819 | -127.44306 | 37865 ft | 508 kts | 311° |
| 2026-04-20 18:32 | 42.13949 | -127.50875 | 37859 ft | 509 kts | 311° |
| 2026-04-20 18:32 | 42.19087 | -127.57464 | 37855 ft | 510 kts | 311° |
| 2026-04-20 18:33 | 42.24223 | -127.64065 | 37850 ft | 511 kts | 311° |
| 2026-04-20 18:33 | 42.29367 | -127.70690 | 37851 ft | 511 kts | 311° |
| 2026-04-20 18:34 | 42.34510 | -127.77332 | 37844 ft | 511 kts | 311° |
| 2026-04-20 18:34 | 42.39652 | -127.83989 | 37840 ft | 512 kts | 312° |
| 2026-04-20 18:35 | 42.44793 | -127.90660 | 37850 ft | 512 kts | 312° |
| 2026-04-20 18:35 | 42.49930 | -127.97340 | 37840 ft | 512 kts | 312° |
| 2026-04-20 18:36 | 42.55056 | -128.04026 | 37841 ft | 512 kts | 313° |
| 2026-04-20 18:36 | 42.60187 | -128.10731 | 37836 ft | 512 kts | 313° |
| 2026-04-20 18:37 | 42.65310 | -128.17442 | 37849 ft | 511 kts | 313° |
| 2026-04-20 18:37 | 42.70428 | -128.24163 | 37841 ft | 512 kts | 313° |
| 2026-04-20 18:38 | 42.75543 | -128.30897 | 37833 ft | 512 kts | 313° |
| 2026-04-20 18:38 | 42.80652 | -128.37640 | 37849 ft | 511 kts | 313° |
| 2026-04-20 18:39 | 42.85759 | -128.44396 | 37827 ft | 512 kts | 313° |
| 2026-04-20 18:39 | 42.90858 | -128.51157 | 37834 ft | 512 kts | 313° |
| 2026-04-20 18:40 | 42.95925 | -128.57894 | 37846 ft | 512 kts | 314° |
| 2026-04-20 18:40 | 43.01024 | -128.64688 | 37825 ft | 512 kts | 314° |
| 2026-04-20 18:41 | 43.06117 | -128.71492 | 37825 ft | 512 kts | 313° |
| 2026-04-20 18:41 | 43.11204 | -128.78303 | 37833 ft | 511 kts | 314° |
| 2026-04-20 18:42 | 43.16318 | -128.85169 | 37826 ft | 511 kts | 314° |
| 2026-04-20 18:42 | 43.21386 | -128.91989 | 37832 ft | 511 kts | 314° |
| 2026-04-20 18:43 | 43.26423 | -128.98782 | 37845 ft | 511 kts | 314° |
| 2026-04-20 18:43 | 43.31491 | -129.05635 | 37825 ft | 511 kts | 314° |
| 2026-04-20 18:44 | 43.36551 | -129.12497 | 37830 ft | 510 kts | 314° |
| 2026-04-20 18:44 | 43.41593 | -129.19350 | 37836 ft | 510 kts | 314° |
| 2026-04-20 18:45 | 43.46639 | -129.26224 | 37844 ft | 512 kts | 314° |
| 2026-04-20 18:45 | 43.51702 | -129.33141 | 37836 ft | 513 kts | 314° |
| 2026-04-20 18:46 | 43.56763 | -129.40072 | 37844 ft | 512 kts | 314° |
| 2026-04-20 18:46 | 43.61804 | -129.46991 | 37836 ft | 510 kts | 314° |
| 2026-04-20 18:47 | 43.66823 | -129.53897 | 37842 ft | 508 kts | 314° |
| 2026-04-20 18:47 | 43.71822 | -129.60794 | 37846 ft | 507 kts | 314° |
| 2026-04-20 18:48 | 43.76809 | -129.67691 | 37834 ft | 507 kts | 314° |
| 2026-04-20 18:48 | 43.81786 | -129.74593 | 37834 ft | 507 kts | 314° |
| 2026-04-20 18:49 | 43.86773 | -129.81525 | 37845 ft | 508 kts | 314° |
| 2026-04-20 18:49 | 43.91767 | -129.88486 | 37846 ft | 510 kts | 314° |
| 2026-04-20 18:50 | 43.96770 | -129.95474 | 37845 ft | 511 kts | 314° |
| 2026-04-20 18:50 | 44.01661 | -130.02633 | 37861 ft | 511 kts | 309° |
| 2026-04-20 18:51 | 44.03944 | -130.06444 | 38009 ft | 515 kts | 309° |
| 2026-04-20 18:51 | 44.06208 | -130.10301 | 38396 ft | 514 kts | 308° |
| 2026-04-20 18:51 | 44.08457 | -130.14160 | 38789 ft | 512 kts | 308° |
| 2026-04-20 18:51 | 44.10692 | -130.17994 | 39184 ft | 510 kts | 308° |
| 2026-04-20 18:52 | 44.12925 | -130.21814 | 39564 ft | 508 kts | 308° |
| 2026-04-20 18:52 | 44.15155 | -130.25619 | 39873 ft | 507 kts | 309° |
| 2026-04-20 18:52 | 44.19615 | -130.33213 | 39867 ft | 505 kts | 309° |
| 2026-04-20 18:53 | 44.24063 | -130.40792 | 39868 ft | 505 kts | 309° |
| 2026-04-20 18:53 | 44.28511 | -130.48392 | 39879 ft | 506 kts | 309° |
| 2026-04-20 18:54 | 44.32960 | -130.56019 | 39880 ft | 507 kts | 309° |
| 2026-04-20 18:54 | 44.37411 | -130.63669 | 39894 ft | 507 kts | 309° |
| 2026-04-20 18:55 | 44.41861 | -130.71337 | 39893 ft | 508 kts | 309° |
| 2026-04-20 18:55 | 44.46299 | -130.79007 | 39891 ft | 507 kts | 309° |
| 2026-04-20 18:56 | 44.50728 | -130.86682 | 39896 ft | 506 kts | 309° |
| 2026-04-20 18:56 | 44.55143 | -130.94352 | 39909 ft | 505 kts | 309° |
| 2026-04-20 18:57 | 44.59542 | -131.02012 | 39912 ft | 503 kts | 309° |
| 2026-04-20 18:57 | 44.63922 | -131.09664 | 39910 ft | 502 kts | 309° |
| 2026-04-20 18:58 | 44.68290 | -131.17314 | 39913 ft | 502 kts | 309° |
| 2026-04-20 18:58 | 44.72651 | -131.24973 | 39922 ft | 502 kts | 309° |
| 2026-04-20 18:59 | 44.77006 | -131.32639 | 39932 ft | 501 kts | 309° |
| 2026-04-20 18:59 | 44.81344 | -131.40299 | 39924 ft | 500 kts | 309° |
| 2026-04-20 19:00 | 44.85680 | -131.47973 | 39923 ft | 500 kts | 309° |
| 2026-04-20 19:00 | 44.89972 | -131.55591 | 39934 ft | 499 kts | 309° |
| 2026-04-20 19:01 | 44.94278 | -131.63256 | 39948 ft | 498 kts | 309° |
| 2026-04-20 19:01 | 44.98599 | -131.70972 | 39946 ft | 497 kts | 309° |
| 2026-04-20 19:02 | 45.02845 | -131.78572 | 39945 ft | 496 kts | 310° |
| 2026-04-20 19:02 | 45.07115 | -131.86223 | 39949 ft | 495 kts | 309° |
| 2026-04-20 19:03 | 45.10685 | -131.92640 | 39959 ft | 495 kts | 309° |
| 2026-04-20 19:03 | 45.14934 | -132.00304 | 39955 ft | 495 kts | 309° |
| 2026-04-20 19:04 | 45.19866 | -132.09224 | 39960 ft | 495 kts | 309° |
| 2026-04-20 19:04 | 45.24110 | -132.16913 | 39960 ft | 495 kts | 309° |
| 2026-04-20 19:05 | 45.27660 | -132.23368 | 39961 ft | 495 kts | 309° |
| 2026-04-20 19:05 | 45.31865 | -132.31038 | 39960 ft | 495 kts | 309° |
| 2026-04-20 19:06 | 45.36091 | -132.38765 | 39959 ft | 495 kts | 309° |
| 2026-04-20 19:06 | 45.40310 | -132.46497 | 39967 ft | 494 kts | 309° |
| 2026-04-20 19:07 | 45.44515 | -132.54224 | 39978 ft | 494 kts | 309° |
| 2026-04-20 19:07 | 45.48716 | -132.61962 | 39975 ft | 493 kts | 309° |
| 2026-04-20 19:08 | 45.54998 | -132.73577 | 39982 ft | 493 kts | 309° |
| 2026-04-20 19:09 | 45.59174 | -132.81325 | 39979 ft | 491 kts | 309° |
| 2026-04-20 19:09 | 45.63330 | -132.89058 | 39981 ft | 490 kts | 309° |
| 2026-04-20 19:10 | 45.67469 | -132.96780 | 39986 ft | 489 kts | 309° |
| 2026-04-20 19:10 | 45.71593 | -133.04493 | 39983 ft | 487 kts | 309° |
| 2026-04-20 19:11 | 45.75691 | -133.12181 | 39984 ft | 485 kts | 309° |
| 2026-04-20 19:11 | 45.79776 | -133.19864 | 39992 ft | 484 kts | 309° |
| 2026-04-20 19:12 | 45.83847 | -133.27541 | 39995 ft | 483 kts | 309° |
| 2026-04-20 19:12 | 45.87908 | -133.35220 | 39987 ft | 483 kts | 309° |
| 2026-04-20 19:13 | 45.91964 | -133.42912 | 40001 ft | 483 kts | 309° |
| 2026-04-20 19:13 | 45.96022 | -133.50626 | 39997 ft | 484 kts | 309° |
| 2026-04-20 19:14 | 46.00082 | -133.58368 | 39986 ft | 485 kts | 309° |
| 2026-04-20 19:14 | 46.04142 | -133.66131 | 40000 ft | 486 kts | 309° |
| 2026-04-20 19:15 | 46.08197 | -133.73905 | 40000 ft | 486 kts | 309° |
| 2026-04-20 19:15 | 46.12256 | -133.81708 | 40000 ft | 487 kts | 309° |
| 2026-04-20 19:16 | 46.16270 | -133.89450 | 39988 ft | 482 kts | 309° |
| 2026-04-20 19:16 | 46.20255 | -133.97156 | 39998 ft | 477 kts | 309° |
| 2026-04-20 19:17 | 46.24215 | -134.04833 | 39999 ft | 476 kts | 309° |
| 2026-04-20 19:17 | 46.28159 | -134.12497 | 39991 ft | 475 kts | 310° |
| 2026-04-20 19:18 | 46.32098 | -134.20174 | 40012 ft | 475 kts | 309° |
| 2026-04-20 19:18 | 46.36033 | -134.27863 | 40014 ft | 475 kts | 309° |
| 2026-04-20 19:19 | 46.39966 | -134.35572 | 40016 ft | 476 kts | 309° |
| 2026-04-20 19:19 | 46.43897 | -134.43298 | 40012 ft | 476 kts | 309° |
| 2026-04-20 19:20 | 46.47821 | -134.51031 | 40016 ft | 476 kts | 309° |
| 2026-04-20 19:20 | 46.51733 | -134.58764 | 40015 ft | 475 kts | 309° |
| 2026-04-20 19:21 | 46.55639 | -134.66505 | 40020 ft | 475 kts | 309° |
| 2026-04-20 19:21 | 46.59538 | -134.74252 | 40022 ft | 475 kts | 309° |
| 2026-04-20 19:22 | 46.63430 | -134.82008 | 40021 ft | 474 kts | 309° |
| 2026-04-20 19:22 | 46.67310 | -134.89763 | 40023 ft | 474 kts | 309° |
| 2026-04-20 19:23 | 46.71188 | -134.97535 | 40005 ft | 474 kts | 309° |
| 2026-04-20 19:23 | 46.75051 | -135.05298 | 40014 ft | 472 kts | 309° |
| 2026-04-20 19:24 | 46.78898 | -135.13051 | 40021 ft | 471 kts | 309° |
| 2026-04-20 19:24 | 46.82731 | -135.20796 | 40021 ft | 470 kts | 309° |
| 2026-04-20 19:25 | 46.86525 | -135.28485 | 40018 ft | 469 kts | 309° |
| 2026-04-20 19:25 | 46.90328 | -135.36212 | 40025 ft | 467 kts | 309° |
| 2026-04-20 19:26 | 46.94116 | -135.43931 | 40029 ft | 466 kts | 309° |
| 2026-04-20 19:26 | 46.97888 | -135.51639 | 40033 ft | 466 kts | 309° |
| 2026-04-20 19:27 | 47.01653 | -135.59354 | 40031 ft | 465 kts | 309° |
| 2026-04-20 19:27 | 47.05403 | -135.67059 | 40041 ft | 464 kts | 309° |
| 2026-04-20 19:28 | 47.09142 | -135.74762 | 40044 ft | 463 kts | 309° |
| 2026-04-20 19:28 | 47.12869 | -135.82462 | 40045 ft | 463 kts | 309° |
| 2026-04-20 19:29 | 47.16588 | -135.90169 | 40046 ft | 462 kts | 309° |
| 2026-04-20 19:29 | 47.20296 | -135.97873 | 40051 ft | 461 kts | 309° |
| 2026-04-20 19:30 | 47.23998 | -136.05587 | 40058 ft | 461 kts | 309° |
| 2026-04-20 19:30 | 47.27693 | -136.13307 | 40046 ft | 461 kts | 309° |
| 2026-04-20 19:31 | 47.31379 | -136.21031 | 40062 ft | 460 kts | 308° |
| 2026-04-20 19:31 | 47.35052 | -136.28750 | 40071 ft | 460 kts | 308° |
| 2026-04-20 19:32 | 47.38723 | -136.36484 | 40071 ft | 460 kts | 308° |
| 2026-04-20 19:32 | 47.42388 | -136.44226 | 40058 ft | 460 kts | 308° |
| 2026-04-20 19:33 | 47.46042 | -136.51968 | 40075 ft | 459 kts | 307° |
| 2026-04-20 19:33 | 47.49685 | -136.59712 | 40081 ft | 458 kts | 307° |
| 2026-04-20 19:34 | 47.53321 | -136.67461 | 40090 ft | 458 kts | 307° |
| 2026-04-20 19:34 | 47.56952 | -136.75219 | 40084 ft | 458 kts | 307° |
| 2026-04-20 19:35 | 47.60567 | -136.82966 | 40092 ft | 457 kts | 307° |
| 2026-04-20 19:35 | 47.64175 | -136.90721 | 40099 ft | 456 kts | 307° |
| 2026-04-20 19:36 | 47.67749 | -136.98422 | 40100 ft | 456 kts | 307° |
| 2026-04-20 19:36 | 47.71337 | -137.06179 | 40103 ft | 455 kts | 306° |
| 2026-04-20 19:37 | 47.74908 | -137.13928 | 40104 ft | 454 kts | 306° |
| 2026-04-20 19:37 | 47.78469 | -137.21661 | 40102 ft | 453 kts | 307° |
| 2026-04-20 19:38 | 47.82012 | -137.29385 | 40128 ft | 452 kts | 306° |
| 2026-04-20 19:38 | 47.85552 | -137.37114 | 40115 ft | 451 kts | 306° |
| 2026-04-20 19:39 | 47.89075 | -137.44843 | 40113 ft | 451 kts | 306° |
| 2026-04-20 19:39 | 47.92588 | -137.52572 | 40134 ft | 450 kts | 306° |
| 2026-04-20 19:40 | 47.96095 | -137.60294 | 40142 ft | 449 kts | 306° |
| 2026-04-20 19:40 | 47.99592 | -137.68022 | 40146 ft | 449 kts | 306° |
| 2026-04-20 19:41 | 48.03083 | -137.75763 | 40147 ft | 449 kts | 306° |
| 2026-04-20 19:41 | 48.06566 | -137.83510 | 40131 ft | 450 kts | 305° |
| 2026-04-20 19:42 | 48.10050 | -137.91286 | 40148 ft | 450 kts | 306° |
| 2026-04-20 19:42 | 48.13534 | -137.99069 | 40149 ft | 450 kts | 305° |
| 2026-04-20 19:43 | 48.17011 | -138.06861 | 40153 ft | 449 kts | 305° |
| 2026-04-20 19:43 | 48.20472 | -138.14651 | 40163 ft | 449 kts | 305° |
| 2026-04-20 19:44 | 48.23923 | -138.22437 | 40149 ft | 448 kts | 305° |
| 2026-04-20 19:44 | 48.27364 | -138.30221 | 40158 ft | 447 kts | 305° |
| 2026-04-20 19:45 | 48.30796 | -138.38009 | 40169 ft | 447 kts | 304° |
| 2026-04-20 19:45 | 48.34221 | -138.45800 | 40175 ft | 447 kts | 304° |
| 2026-04-20 19:46 | 48.37642 | -138.53603 | 40183 ft | 447 kts | 305° |
| 2026-04-20 19:46 | 48.41060 | -138.61423 | 40185 ft | 447 kts | 304° |
| 2026-04-20 19:47 | 48.44474 | -138.69255 | 40189 ft | 447 kts | 304° |
| 2026-04-20 19:47 | 48.47882 | -138.77098 | 40192 ft | 447 kts | 304° |
| 2026-04-20 19:48 | 48.51281 | -138.84947 | 40188 ft | 447 kts | 304° |
| 2026-04-20 19:48 | 48.54671 | -138.92793 | 40198 ft | 446 kts | 304° |
| 2026-04-20 19:49 | 48.58053 | -139.00647 | 40190 ft | 446 kts | 304° |
| 2026-04-20 19:49 | 48.61401 | -139.08442 | 40200 ft | 445 kts | 303° |
| 2026-04-20 19:50 | 48.64759 | -139.16283 | 40209 ft | 444 kts | 303° |
| 2026-04-20 19:50 | 48.68105 | -139.24120 | 40205 ft | 443 kts | 303° |
| 2026-04-20 19:51 | 48.71441 | -139.31957 | 40218 ft | 442 kts | 303° |
| 2026-04-20 19:51 | 48.74769 | -139.39795 | 40219 ft | 442 kts | 303° |
| 2026-04-20 19:52 | 48.77548 | -139.46361 | 40219 ft | 442 kts | 303° |
| 2026-04-20 19:52 | 48.81400 | -139.55487 | 40217 ft | 442 kts | 303° |
| 2026-04-20 19:53 | 48.84175 | -139.62081 | 40224 ft | 442 kts | 303° |
| 2026-04-20 19:53 | 48.87481 | -139.69958 | 40224 ft | 442 kts | 302° |
| 2026-04-20 19:54 | 48.90761 | -139.77794 | 40227 ft | 442 kts | 302° |
| 2026-04-20 19:54 | 48.94075 | -139.85739 | 40235 ft | 442 kts | 302° |
| 2026-04-20 19:55 | 48.97345 | -139.93595 | 40235 ft | 442 kts | 302° |
| 2026-04-20 19:55 | 49.00423 | -140.01683 | 40246 ft | 441 kts | 295° |
| 2026-04-20 19:56 | 49.02674 | -140.10369 | 40245 ft | 441 kts | 291° |
| 2026-04-20 19:56 | 49.04831 | -140.19104 | 40239 ft | 440 kts | 291° |
| 2026-04-20 19:57 | 49.06994 | -140.27825 | 40250 ft | 439 kts | 291° |
| 2026-04-20 19:57 | 49.09156 | -140.36521 | 40263 ft | 438 kts | 291° |
| 2026-04-20 19:58 | 49.11314 | -140.45210 | 40253 ft | 437 kts | 291° |
| 2026-04-20 19:58 | 49.13461 | -140.53891 | 40248 ft | 436 kts | 291° |
| 2026-04-20 19:59 | 49.15596 | -140.62555 | 40262 ft | 435 kts | 291° |
| 2026-04-20 19:59 | 49.17720 | -140.71211 | 40255 ft | 435 kts | 290° |
| 2026-04-20 20:00 | 49.19834 | -140.79857 | 40261 ft | 434 kts | 290° |
| 2026-04-20 20:00 | 49.21937 | -140.88501 | 40267 ft | 433 kts | 290° |
| 2026-04-20 20:01 | 49.24033 | -140.97139 | 40272 ft | 433 kts | 290° |
| 2026-04-20 20:01 | 49.26120 | -141.05778 | 40269 ft | 433 kts | 290° |
| 2026-04-20 20:02 | 49.28199 | -141.14416 | 40268 ft | 433 kts | 290° |
| 2026-04-20 20:02 | 49.30275 | -141.23081 | 40273 ft | 433 kts | 290° |
| 2026-04-20 20:03 | 49.32346 | -141.31753 | 40280 ft | 433 kts | 290° |
| 2026-04-20 20:03 | 49.34411 | -141.40439 | 40270 ft | 434 kts | 290° |
| 2026-04-20 20:04 | 49.36469 | -141.49129 | 40276 ft | 434 kts | 290° |
| 2026-04-20 20:04 | 49.38524 | -141.57840 | 40287 ft | 434 kts | 289° |
| 2026-04-20 20:05 | 49.40572 | -141.66556 | 40284 ft | 434 kts | 289° |
| 2026-04-20 20:05 | 49.42610 | -141.75268 | 40281 ft | 433 kts | 289° |
| 2026-04-20 20:06 | 49.44639 | -141.83974 | 40289 ft | 432 kts | 289° |
| 2026-04-20 20:06 | 49.46645 | -141.92615 | 40297 ft | 432 kts | 289° |
| 2026-04-20 20:07 | 49.48652 | -142.01301 | 40294 ft | 431 kts | 289° |
| 2026-04-20 20:07 | 49.50654 | -142.09994 | 40292 ft | 431 kts | 288° |
| 2026-04-20 20:08 | 49.52647 | -142.18687 | 40293 ft | 431 kts | 288° |
| 2026-04-20 20:08 | 49.54634 | -142.27385 | 40301 ft | 431 kts | 288° |
| 2026-04-20 20:09 | 49.56613 | -142.36089 | 40310 ft | 431 kts | 288° |
| 2026-04-20 20:09 | 49.58585 | -142.44801 | 40315 ft | 431 kts | 288° |
| 2026-04-20 20:10 | 49.60550 | -142.53511 | 40314 ft | 430 kts | 288° |
| 2026-04-20 20:10 | 49.62509 | -142.62231 | 40307 ft | 430 kts | 288° |
| 2026-04-20 20:11 | 49.64461 | -142.70954 | 40303 ft | 430 kts | 288° |
| 2026-04-20 20:11 | 49.66404 | -142.79678 | 40316 ft | 430 kts | 288° |
| 2026-04-20 20:12 | 49.68338 | -142.88399 | 40314 ft | 429 kts | 287° |
| 2026-04-20 20:12 | 49.70266 | -142.97122 | 40322 ft | 429 kts | 287° |
| 2026-04-20 20:13 | 49.73141 | -143.10204 | 40330 ft | 428 kts | 287° |
| 2026-04-20 20:13 | 49.75048 | -143.18926 | 40331 ft | 428 kts | 287° |
| 2026-04-20 20:14 | 49.76947 | -143.27651 | 40342 ft | 428 kts | 287° |
| 2026-04-20 20:14 | 49.78836 | -143.36366 | 40332 ft | 427 kts | 287° |
| 2026-04-20 20:15 | 49.80718 | -143.45086 | 40339 ft | 427 kts | 287° |
| 2026-04-20 20:15 | 49.82591 | -143.53803 | 40339 ft | 426 kts | 287° |
| 2026-04-20 20:16 | 49.84457 | -143.62522 | 40345 ft | 426 kts | 287° |
| 2026-04-20 20:16 | 49.86314 | -143.71240 | 40350 ft | 426 kts | 286° |
| 2026-04-20 20:17 | 49.88163 | -143.79950 | 40344 ft | 426 kts | 286° |
| 2026-04-20 20:17 | 49.90004 | -143.88667 | 40338 ft | 425 kts | 286° |
| 2026-04-20 20:18 | 49.91839 | -143.97389 | 40352 ft | 425 kts | 286° |
| 2026-04-20 20:18 | 49.93668 | -144.06122 | 40350 ft | 426 kts | 286° |
| 2026-04-20 20:19 | 49.95479 | -144.14810 | 40361 ft | 426 kts | 286° |
| 2026-04-20 20:19 | 49.97296 | -144.23559 | 40355 ft | 426 kts | 286° |
| 2026-04-20 20:20 | 49.99107 | -144.32317 | 40361 ft | 426 kts | 285° |
| 2026-04-20 20:20 | 50.00910 | -144.41077 | 40361 ft | 425 kts | 285° |
| 2026-04-20 20:21 | 50.02706 | -144.49844 | 40361 ft | 425 kts | 285° |
| 2026-04-20 20:21 | 50.04492 | -144.58601 | 40368 ft | 425 kts | 285° |
| 2026-04-20 20:22 | 50.06274 | -144.67369 | 40369 ft | 425 kts | 285° |
| 2026-04-20 20:22 | 50.08047 | -144.76138 | 40366 ft | 424 kts | 285° |
| 2026-04-20 20:23 | 50.09811 | -144.84904 | 40375 ft | 424 kts | 285° |
| 2026-04-20 20:23 | 50.11568 | -144.93673 | 40371 ft | 424 kts | 285° |
| 2026-04-20 20:24 | 50.13319 | -145.02449 | 40378 ft | 424 kts | 285° |
| 2026-04-20 20:24 | 50.15062 | -145.11224 | 40374 ft | 424 kts | 285° |
| 2026-04-20 20:25 | 50.16800 | -145.20014 | 40377 ft | 424 kts | 285° |
| 2026-04-20 20:25 | 50.18530 | -145.28807 | 40377 ft | 424 kts | 284° |
| 2026-04-20 20:26 | 50.20252 | -145.37597 | 40383 ft | 424 kts | 284° |
| 2026-04-20 20:26 | 50.21968 | -145.46398 | 40383 ft | 424 kts | 284° |
| 2026-04-20 20:27 | 50.23681 | -145.55222 | 40385 ft | 424 kts | 284° |
| 2026-04-20 20:27 | 50.25384 | -145.64038 | 40386 ft | 424 kts | 284° |
| 2026-04-20 20:28 | 50.27081 | -145.72859 | 40375 ft | 424 kts | 284° |
| 2026-04-20 20:28 | 50.28772 | -145.81693 | 40402 ft | 424 kts | 284° |
| 2026-04-20 20:29 | 50.30457 | -145.90536 | 40396 ft | 425 kts | 284° |
| 2026-04-20 20:29 | 50.32138 | -145.99405 | 40393 ft | 425 kts | 284° |
| 2026-04-20 20:30 | 50.33813 | -146.08278 | 40396 ft | 425 kts | 284° |
| 2026-04-20 20:30 | 50.35480 | -146.17150 | 40399 ft | 425 kts | 284° |
| 2026-04-20 20:31 | 50.37142 | -146.26041 | 40422 ft | 425 kts | 284° |
| 2026-04-20 20:31 | 50.38797 | -146.34934 | 40405 ft | 425 kts | 283° |
| 2026-04-20 20:32 | 50.40447 | -146.43844 | 40398 ft | 425 kts | 283° |
| 2026-04-20 20:32 | 50.42089 | -146.52753 | 40402 ft | 425 kts | 283° |
| 2026-04-20 20:33 | 50.43446 | -146.60153 | 40401 ft | 425 kts | 283° |
| 2026-04-20 20:33 | 50.45074 | -146.69065 | 40401 ft | 425 kts | 283° |
| 2026-04-20 20:34 | 50.46695 | -146.77984 | 40404 ft | 425 kts | 283° |
| 2026-04-20 20:34 | 50.48308 | -146.86903 | 40406 ft | 425 kts | 283° |
| 2026-04-20 20:35 | 50.49913 | -146.95819 | 40408 ft | 425 kts | 283° |
| 2026-04-20 20:35 | 50.51512 | -147.04748 | 40408 ft | 424 kts | 283° |
| 2026-04-20 20:36 | 50.53104 | -147.13681 | 40406 ft | 424 kts | 283° |
| 2026-04-20 20:36 | 50.54690 | -147.22625 | 40413 ft | 425 kts | 283° |
| 2026-04-20 20:37 | 50.56269 | -147.31575 | 40410 ft | 425 kts | 282° |
| 2026-04-20 20:37 | 50.57842 | -147.40531 | 40410 ft | 424 kts | 282° |
| 2026-04-20 20:38 | 50.59405 | -147.49481 | 40408 ft | 424 kts | 282° |
| 2026-04-20 20:38 | 50.60953 | -147.58385 | 40407 ft | 424 kts | 282° |
| 2026-04-20 20:39 | 50.62511 | -147.67401 | 40405 ft | 424 kts | 282° |
| 2026-04-20 20:39 | 50.64044 | -147.76311 | 40409 ft | 424 kts | 282° |
| 2026-04-20 20:40 | 50.65580 | -147.85284 | 40412 ft | 424 kts | 282° |
| 2026-04-20 20:40 | 50.67109 | -147.94263 | 40413 ft | 424 kts | 282° |
| 2026-04-20 20:41 | 50.68631 | -148.03250 | 40414 ft | 424 kts | 282° |
| 2026-04-20 20:41 | 50.70147 | -148.12248 | 40422 ft | 425 kts | 282° |
| 2026-04-20 20:42 | 50.71657 | -148.21256 | 40418 ft | 425 kts | 281° |
| 2026-04-20 20:42 | 50.73160 | -148.30260 | 40419 ft | 424 kts | 281° |
| 2026-04-20 20:43 | 50.74655 | -148.39273 | 40409 ft | 424 kts | 281° |
| 2026-04-20 20:43 | 50.76142 | -148.48288 | 40414 ft | 424 kts | 281° |
| 2026-04-20 20:44 | 50.77622 | -148.57305 | 40410 ft | 424 kts | 281° |
| 2026-04-20 20:44 | 50.79094 | -148.66317 | 40415 ft | 424 kts | 281° |
| 2026-04-20 20:45 | 50.80559 | -148.75342 | 40420 ft | 424 kts | 281° |
| 2026-04-20 20:45 | 50.82017 | -148.84371 | 40414 ft | 424 kts | 281° |
| 2026-04-20 20:46 | 50.83468 | -148.93403 | 40418 ft | 424 kts | 281° |
| 2026-04-20 20:46 | 50.84913 | -149.02446 | 40424 ft | 424 kts | 281° |
| 2026-04-20 20:47 | 50.86353 | -149.11506 | 40418 ft | 425 kts | 280° |
| 2026-04-20 20:47 | 50.87784 | -149.20567 | 40415 ft | 425 kts | 280° |
| 2026-04-20 20:48 | 50.89211 | -149.29644 | 40416 ft | 425 kts | 280° |
| 2026-04-20 20:48 | 50.90631 | -149.38727 | 40414 ft | 425 kts | 280° |
| 2026-04-20 20:49 | 50.92043 | -149.47816 | 40426 ft | 425 kts | 280° |
| 2026-04-20 20:49 | 50.93450 | -149.56924 | 40415 ft | 425 kts | 280° |
| 2026-04-20 20:50 | 50.94852 | -149.66041 | 40403 ft | 425 kts | 280° |
| 2026-04-20 20:50 | 50.96245 | -149.75162 | 40410 ft | 425 kts | 280° |
| 2026-04-20 20:51 | 50.97632 | -149.84291 | 40417 ft | 426 kts | 280° |
| 2026-04-20 20:51 | 50.99014 | -149.93429 | 40416 ft | 426 kts | 279° |
| 2026-04-20 20:52 | 51.00584 | -150.02501 | 40417 ft | 429 kts | 286° |
| 2026-04-20 20:52 | 51.02814 | -150.11321 | 40420 ft | 431 kts | 288° |
| 2026-04-20 20:53 | 51.05043 | -150.20086 | 40418 ft | 431 kts | 287° |
| 2026-04-20 20:53 | 51.07267 | -150.28925 | 40417 ft | 430 kts | 287° |
| 2026-04-20 20:54 | 51.09475 | -150.37773 | 40421 ft | 431 kts | 287° |
| 2026-04-20 20:54 | 51.11677 | -150.46645 | 40420 ft | 431 kts | 287° |
| 2026-04-20 20:55 | 51.13872 | -150.55525 | 40416 ft | 431 kts | 287° |
| 2026-04-20 20:55 | 51.16060 | -150.64411 | 40411 ft | 431 kts | 287° |
| 2026-04-20 20:56 | 51.18239 | -150.73298 | 40433 ft | 430 kts | 287° |
| 2026-04-20 20:56 | 51.20413 | -150.82197 | 40420 ft | 431 kts | 287° |
| 2026-04-20 20:57 | 51.22578 | -150.91099 | 40414 ft | 431 kts | 287° |